| time (UTC) | temp F | wind direction | speed knots | gust knots | rain 1hr in | rain 24hr in | rain mn in | humidity % | barometer mb |
| 20260906090035 | 75 | 0.0 | 0.0 | 0.00 | 0.00 | 0.00 | 92 | 1012.3 | |
| 20260906084815 | 75 | 0.0 | 0.0 | 0.00 | 0.00 | 0.00 | 91 | 1012.3 | |
| 20260906083635 | 75 | 0.0 | 0.0 | 0.00 | 0.00 | 0.00 | 91 | 1012.0 | |
| 20260906082415 | 75 | 0.0 | 0.0 | 0.00 | 0.00 | 0.00 | 91 | 1012.0 | |
| 20260906081255 | 75 | 0.0 | 0.0 | 0.00 | 0.00 | 0.00 | 90 | 1012.1 | |
| 20260906080015 | 75 | 0.0 | 0.0 | 0.00 | 0.00 | 0.00 | 90 | 1012.2 | |
| 20260906074816 | 76 | 0.0 | 0.0 | 0.00 | 0.00 | 0.00 | 90 | 1012.1 | |
| 20260906073615 | 76 | 0.0 | 0.0 | 0.00 | 0.00 | 0.00 | 90 | 1011.9 | |
| 20260906072415 | 76 | 0.0 | 0.0 | 0.00 | 0.00 | 0.00 | 90 | 1011.9 | |
| 20260906071215 | 76 | 0.0 | 0.0 | 0.00 | 0.00 | 0.00 | 90 | 1012.1 | |
| 20260906070015 | 76 | 7 | 0.9 | 1.7 | 0.00 | 0.00 | 0.00 | 90 | 1012.4 |
| 20260906064835 | 76 | 4 | 0.0 | 0.9 | 0.00 | 0.00 | 0.00 | 88 | 1012.4 |
| 20260906063615 | 76 | 7 | 0.9 | 0.9 | 0.00 | 0.00 | 0.00 | 88 | 1012.6 |
| 20260906062437 | 76 | 7 | 0.0 | 0.9 | 0.00 | 0.00 | 0.00 | 88 | 1012.6 |
| 20260906061217 | 76 | 7 | 0.0 | 0.9 | 0.00 | 0.00 | 0.00 | 87 | 1012.7 |
| 20260906060017 | 76 | 7 | 0.9 | 1.7 | 0.00 | 0.00 | 0.00 | 85 | 1012.7 |
| 20260906054817 | 76 | 0.0 | 0.0 | 0.00 | 0.00 | 0.00 | 86 | 1012.9 | |
| 20260906053617 | 77 | 7 | 0.0 | 0.9 | 0.00 | 0.00 | 0.00 | 85 | 1013.0 |
| 20260906052417 | 77 | 10 | 0.0 | 0.9 | 0.00 | 0.00 | 0.00 | 82 | 1013.0 |
| 20260906051217 | 77 | 87 | 0.0 | 0.9 | 0.00 | 0.00 | 0.00 | 81 | 1012.9 |
| 20260906050016 | 77 | 0.0 | 0.9 | 0.00 | 0.00 | 0.00 | 79 | 1013.0 | |
| 20260906044817 | 78 | 87 | 0.0 | 0.9 | 0.00 | 0.00 | 0.00 | 80 | 1012.9 |
| 20260906043616 | 78 | 87 | 0.0 | 0.9 | 0.00 | 0.00 | 0.00 | 80 | 1013.0 |
| 20260906042416 | 78 | 0.0 | 0.9 | 0.00 | 0.00 | 0.00 | 79 | 1012.9 | |
| 20260906041216 | 78 | 87 | 0.0 | 0.9 | 0.00 | 0.00 | 0.00 | 78 | 1013.0 |
| 20260906040036 | 78 | 0.0 | 1.7 | 0.00 | 0.00 | 0.00 | 78 | 1012.9 | |
| 20260906034817 | 79 | 207 | 0.9 | 1.7 | 0.00 | 0.00 | 0.00 | 81 | 1013.1 |
| 20260906033617 | 79 | 0.0 | 0.9 | 0.00 | 0.00 | 0.00 | 80 | 1013.1 | |
| 20260906032417 | 80 | 0.0 | 0.0 | 0.00 | 0.00 | 0.00 | 79 | 1013.2 | |
| 20260906031217 | 80 | 0.0 | 0.0 | 0.00 | 0.00 | 0.00 | 78 | 1013.4 | |
| 20260906030036 | 80 | 233 | 0.0 | 0.9 | 0.00 | 0.00 | 0.00 | 78 | 1013.3 |
| 20260906024836 | 80 | 233 | 0.0 | 0.9 | 0.00 | 0.00 | 0.00 | 78 | 1013.4 |
| 20260906023617 | 80 | 0.0 | 0.0 | 0.00 | 0.00 | 0.00 | 77 | 1013.3 | |
| 20260906022416 | 80 | 0.0 | 0.0 | 0.00 | 0.00 | 0.00 | 77 | 1013.3 | |
| 20260906021237 | 80 | 0.0 | 0.0 | 0.00 | 0.00 | 0.00 | 76 | 1013.1 | |
| 20260906020017 | 80 | 0.0 | 0.0 | 0.00 | 0.00 | 0.00 | 76 | 1013.2 | |
| 20260906014816 | 80 | 0.0 | 0.0 | 0.00 | 0.00 | 0.00 | 75 | 1012.8 | |
| 20260906013616 | 81 | 0.0 | 0.9 | 0.00 | 0.00 | 0.00 | 75 | 1012.7 | |
| 20260906012416 | 81 | 237 | 0.0 | 0.9 | 0.00 | 0.00 | 0.00 | 75 | 1012.8 |
| 20260906011236 | 81 | 0.0 | 0.0 | 0.00 | 0.00 | 0.00 | 75 | 1012.7 | |
| 20260906010017 | 81 | 237 | 0.0 | 1.7 | 0.00 | 0.00 | 0.00 | 75 | 1012.3 |
| 20260906004817 | 81 | 96 | 0.9 | 2.6 | 0.00 | 0.00 | 0.00 | 74 | 1012.1 |
| 20260906003616 | 81 | 227 | 0.0 | 0.9 | 0.00 | 0.00 | 0.00 | 73 | 1012.1 |
| 20260906002416 | 82 | 231 | 0.0 | 0.9 | 0.00 | 0.00 | 0.00 | 72 | 1012.2 |
| 20260906001216 | 82 | 315 | 0.9 | 1.7 | 0.00 | 0.00 | 0.00 | 71 | 1012.3 |
| 20260906000017 | 82 | 311 | 0.9 | 0.9 | 0.00 | 0.00 | 0.00 | 70 | 1012.2 |
| 20260905234837 | 83 | 301 | 0.0 | 1.7 | 0.00 | 0.00 | 0.00 | 68 | 1012.1 |
| 20260905233636 | 83 | 302 | 0.0 | 1.7 | 0.00 | 0.00 | 0.00 | 65 | 1012.0 |
| 20260905232416 | 83 | 43 | 0.0 | 0.9 | 0.00 | 0.00 | 0.00 | 66 | 1011.8 |
| 20260905231217 | 84 | 121 | 0.9 | 1.7 | 0.00 | 0.00 | 0.00 | 67 | 1012.3 |
| 20260905230016 | 85 | 326 | 0.9 | 2.6 | 0.00 | 0.00 | 0.00 | 67 | 1011.9 |
| 20260905224816 | 85 | 279 | 0.9 | 1.7 | 0.00 | 0.00 | 0.00 | 67 | 1011.7 |
| 20260905223616 | 86 | 140 | 0.9 | 3.5 | 0.00 | 0.00 | 0.00 | 65 | 1012.0 |
| 20260905222416 | 86 | 101 | 0.0 | 1.7 | 0.00 | 0.00 | 0.00 | 64 | 1011.7 |
| 20260905221216 | 87 | 243 | 0.9 | 3.5 | 0.00 | 0.00 | 0.00 | 63 | 1011.7 |
| 20260905220016 | 88 | 25 | 1.7 | 6.1 | 0.00 | 0.00 | 0.00 | 61 | 1011.6 |
| 20260905214817 | 91 | 93 | 1.7 | 5.2 | 0.00 | 0.00 | 0.00 | 56 | 1011.4 |
| 20260905213616 | 98 | 11 | 2.6 | 7.0 | 0.00 | 0.00 | 0.00 | 44 | 1011.5 |
| 20260905212416 | 101 | 35 | 0.9 | 2.6 | 0.00 | 0.00 | 0.00 | 39 | 1011.0 |
| 20260905211217 | 101 | 12 | 0.9 | 1.7 | 0.00 | 0.00 | 0.00 | 39 | 1011.4 |
| 20260905210016 | 102 | 35 | 0.0 | 1.7 | 0.00 | 0.00 | 0.00 | 39 | 1011.4 |
| 20260905204816 | 102 | 334 | 1.7 | 2.6 | 0.00 | 0.00 | 0.00 | 38 | 1011.5 |
| 20260905203616 | 102 | 283 | 0.9 | 2.6 | 0.00 | 0.00 | 0.00 | 37 | 1011.3 |
| 20260905202416 | 102 | 348 | 0.9 | 1.7 | 0.00 | 0.00 | 0.00 | 38 | 1011.2 |
| 20260905201216 | 102 | 287 | 0.9 | 2.6 | 0.00 | 0.00 | 0.00 | 38 | 1011.5 |
| 20260905200016 | 101 | 357 | 0.9 | 3.5 | 0.00 | 0.00 | 0.00 | 40 | 1011.6 |
| 20260905194816 | 101 | 221 | 0.9 | 2.6 | 0.00 | 0.00 | 0.00 | 36 | 1011.8 |
| 20260905193616 | 101 | 265 | 0.9 | 1.7 | 0.00 | 0.00 | 0.00 | 38 | 1011.8 |
| 20260905192416 | 99 | 353 | 0.9 | 2.6 | 0.00 | 0.00 | 0.00 | 40 | 1012.0 |
| 20260905191217 | 100 | 88 | 1.7 | 5.2 | 0.00 | 0.00 | 0.00 | 39 | 1012.1 |
| 20260905190016 | 100 | 151 | 0.9 | 4.3 | 0.00 | 0.00 | 0.00 | 38 | 1012.3 |
| 20260905184816 | 101 | 95 | 1.7 | 3.5 | 0.00 | 0.00 | 0.00 | 38 | 1012.5 |
| 20260905183616 | 101 | 341 | 0.9 | 2.6 | 0.00 | 0.00 | 0.00 | 37 | 1012.7 |
| 20260905182415 | 100 | 36 | 0.9 | 2.6 | 0.00 | 0.00 | 0.00 | 40 | 1012.8 |
| 20260905181216 | 99 | 115 | 2.6 | 7.0 | 0.00 | 0.00 | 0.00 | 42 | 1013.0 |
| 20260905180016 | 100 | 72 | 0.9 | 5.2 | 0.00 | 0.00 | 0.00 | 44 | 1013.2 |
| 20260905174815 | 99 | 3 | 0.9 | 1.7 | 0.00 | 0.00 | 0.00 | 44 | 1013.3 |
| 20260905173616 | 100 | 81 | 1.7 | 3.5 | 0.00 | 0.00 | 0.00 | 44 | 1013.3 |
| 20260905172415 | 99 | 31 | 0.9 | 1.7 | 0.00 | 0.00 | 0.00 | 46 | 1013.5 |
| 20260905171236 | 98 | 342 | 0.9 | 1.7 | 0.00 | 0.00 | 0.00 | 48 | 1013.6 |
| 20260905170016 | 96 | 273 | 0.0 | 3.5 | 0.00 | 0.00 | 0.00 | 49 | 1013.7 |
| 20260905164815 | 97 | 222 | 0.9 | 2.6 | 0.00 | 0.00 | 0.00 | 49 | 1014.1 |
| 20260905163616 | 96 | 300 | 0.9 | 3.5 | 0.00 | 0.00 | 0.00 | 50 | 1014.2 |
| 20260905162416 | 95 | 315 | 1.7 | 2.6 | 0.00 | 0.00 | 0.00 | 51 | 1014.5 |
| 20260905161215 | 95 | 336 | 1.7 | 4.3 | 0.00 | 0.00 | 0.00 | 51 | 1014.8 |
| 20260905160015 | 94 | 321 | 1.7 | 3.5 | 0.00 | 0.00 | 0.00 | 55 | 1015.0 |
| 20260905154856 | 94 | 337 | 1.7 | 2.6 | 0.00 | 0.00 | 0.00 | 56 | 1014.9 |
| 20260905153615 | 93 | 16 | 0.9 | 1.7 | 0.00 | 0.00 | 0.00 | 57 | 1015.0 |
| 20260905152415 | 92 | 343 | 0.0 | 1.7 | 0.00 | 0.00 | 0.00 | 61 | 1015.1 |
| 20260905151215 | 91 | 298 | 0.9 | 2.6 | 0.00 | 0.00 | 0.00 | 63 | 1015.2 |
| 20260905150015 | 89 | 1 | 0.9 | 2.6 | 0.00 | 0.00 | 0.00 | 67 | 1015.4 |
| 20260905144855 | 88 | 333 | 0.9 | 2.6 | 0.00 | 0.00 | 0.00 | 71 | 1015.5 |
| 20260905143615 | 86 | 310 | 0.9 | 2.6 | 0.00 | 0.00 | 0.00 | 73 | 1015.5 |
| 20260905142416 | 85 | 294 | 0.9 | 1.7 | 0.00 | 0.00 | 0.00 | 77 | 1015.7 |
| 20260905141235 | 83 | 6 | 0.9 | 2.6 | 0.00 | 0.00 | 0.00 | 81 | 1015.7 |
| 20260905140015 | 82 | 324 | 0.9 | 1.7 | 0.00 | 0.00 | 0.00 | 83 | 1015.7 |
| 20260905134816 | 81 | 336 | 0.9 | 1.7 | 0.00 | 0.00 | 0.00 | 87 | 1015.7 |
| 20260905133615 | 80 | 235 | 0.9 | 1.7 | 0.00 | 0.00 | 0.00 | 88 | 1015.7 |
| 20260905132415 | 79 | 6 | 0.9 | 1.7 | 0.00 | 0.00 | 0.00 | 90 | 1015.7 |
| 20260905131215 | 78 | 342 | 0.0 | 2.6 | 0.00 | 0.00 | 0.00 | 92 | 1015.8 |
| 20260905130015 | 77 | 242 | 0.0 | 1.7 | 0.00 | 0.00 | 0.00 | 94 | 1015.9 |
| 20260905124815 | 76 | 345 | 0.9 | 1.7 | 0.00 | 0.00 | 0.00 | 96 | 1015.9 |
| 20260905123615 | 75 | 19 | 0.0 | 0.9 | 0.00 | 0.00 | 0.00 | 96 | 1015.9 |
| 20260905122416 | 74 | 31 | 0.0 | 1.7 | 0.00 | 0.00 | 0.00 | 96 | 1015.7 |
| 20260905121215 | 73 | 0.0 | 0.9 | 0.00 | 0.00 | 0.00 | 96 | 1015.6 | |
| 20260905120015 | 73 | 165 | 0.0 | 0.9 | 0.00 | 0.00 | 0.00 | 96 | 1015.6 |
| 20260905114815 | 73 | 164 | 0.0 | 0.9 | 0.00 | 0.00 | 0.00 | 95 | 1015.5 |
| 20260905113615 | 72 | 164 | 0.0 | 0.9 | 0.00 | 0.00 | 0.00 | 96 | 1015.4 |
| 20260905112415 | 72 | 0.0 | 0.0 | 0.00 | 0.00 | 0.00 | 96 | 1015.4 | |
| 20260905111215 | 72 | 164 | 0.0 | 0.9 | 0.00 | 0.00 | 0.00 | 96 | 1015.4 |
| 20260905110015 | 72 | 0.0 | 0.0 | 0.00 | 0.00 | 0.00 | 95 | 1015.1 | |
| 20260905104815 | 72 | 164 | 0.0 | 0.9 | 0.00 | 0.00 | 0.00 | 95 | 1015.0 |
| 20260905103635 | 72 | 164 | 0.9 | 0.9 | 0.00 | 0.00 | 0.00 | 96 | 1014.9 |
| 20260905102415 | 73 | 164 | 0.9 | 0.9 | 0.00 | 0.00 | 0.00 | 96 | 1014.8 |
| 20260905101215 | 73 | 0.0 | 0.9 | 0.00 | 0.00 | 0.00 | 95 | 1014.8 | |
| 20260905100015 | 73 | 0.0 | 0.0 | 0.00 | 0.00 | 0.00 | 95 | 1014.7 | |
| 20260905094815 | 73 | 164 | 0.0 | 0.9 | 0.00 | 0.00 | 0.00 | 95 | 1014.7 |
| 20260905093615 | 73 | 0.0 | 0.0 | 0.00 | 0.00 | 0.00 | 95 | 1014.7 | |
| 20260905092415 | 73 | 0.0 | 0.0 | 0.00 | 0.00 | 0.00 | 94 | 1014.8 | |
| 20260905091236 | 73 | 0.0 | 0.0 | 0.00 | 0.00 | 0.00 | 95 | 1014.7 |